createdAt,value
2023-05-13T00:02:04.460Z,10.54
2023-05-13T00:05:07.594Z,10.76
2023-05-13T00:08:10.140Z,10.83
2023-05-13T00:11:12.810Z,10.69
2023-05-13T00:14:15.305Z,10.82
2023-05-13T00:17:17.777Z,10.79
2023-05-13T00:20:20.433Z,10.62
2023-05-13T00:23:22.960Z,10.62
2023-05-13T00:26:25.526Z,10.68
2023-05-13T00:29:27.871Z,10.73
2023-05-13T00:32:30.251Z,10.67
2023-05-13T00:35:32.621Z,10.68
2023-05-13T00:38:34.987Z,10.58
2023-05-13T00:41:38.179Z,10.69
2023-05-13T00:44:41.053Z,10.66
2023-05-13T00:47:44.125Z,10.78
2023-05-13T00:50:46.848Z,10.68
2023-05-13T00:53:50.858Z,10.78
2023-05-13T00:56:56.672Z,10.65
2023-05-13T00:59:59.934Z,10.64
2023-05-13T01:03:21.962Z,10.74
2023-05-13T01:06:36.661Z,10.70
2023-05-13T01:09:57.529Z,10.80
2023-05-13T01:13:04.211Z,10.71
2023-05-13T01:16:16.459Z,10.33
2023-05-13T01:19:40.476Z,10.58
2023-05-13T01:22:42.877Z,10.53
2023-05-13T01:25:45.868Z,10.54
2023-05-13T01:28:49.291Z,10.48
2023-05-13T01:31:53.841Z,10.35
2023-05-13T01:34:58.726Z,10.57
2023-05-13T01:38:03.561Z,10.41
2023-05-13T01:41:06.136Z,10.60
2023-05-13T01:44:08.746Z,10.51
2023-05-13T01:47:11.244Z,10.52
2023-05-13T01:50:13.789Z,10.48
2023-05-13T01:53:17.430Z,10.53
2023-05-13T01:56:21.265Z,10.41
2023-05-13T01:59:25.342Z,10.32
2023-05-13T02:02:27.732Z,10.32
2023-05-13T02:05:33.186Z,10.25
2023-05-13T02:08:39.540Z,10.43
2023-05-13T02:11:41.936Z,10.38
2023-05-13T02:14:44.312Z,10.32
2023-05-13T02:17:46.726Z,10.04
2023-05-13T02:20:49.353Z,10.24
2023-05-13T02:23:52.618Z,10.13
2023-05-13T02:26:55.784Z,10.14
2023-05-13T02:29:58.186Z,10.21
2023-05-13T02:33:01.376Z,10.04
2023-05-13T02:36:03.958Z,10.25
2023-05-13T02:39:06.399Z,10.21
2023-05-13T02:42:08.914Z,10.12
2023-05-13T02:45:12.528Z,10.14
2023-05-13T02:48:17.845Z,10.23
2023-05-13T02:51:20.465Z,10.30
2023-05-13T02:54:22.941Z,10.35
2023-05-13T02:57:25.540Z,10.11
2023-05-13T03:00:28.276Z,10.17
2023-05-13T03:03:31.462Z,10.33
2023-05-13T03:06:33.950Z,10.36
2023-05-13T03:09:39.197Z,10.29
2023-05-13T03:12:43.432Z,10.20
2023-05-13T03:15:45.961Z,10.32
2023-05-13T03:18:48.517Z,10.40
2023-05-13T03:21:52.438Z,10.30
2023-05-13T03:24:54.947Z,10.38
2023-05-13T03:28:03.641Z,10.45
2023-05-13T03:31:10.570Z,10.37
2023-05-13T03:34:15.031Z,10.27
2023-05-13T03:37:17.802Z,10.30
2023-05-13T03:40:20.636Z,10.49
2023-05-13T03:43:25.248Z,10.45
2023-05-13T03:46:34.097Z,10.45
2023-05-13T03:49:36.969Z,10.52
2023-05-13T03:52:39.454Z,10.51
2023-05-13T03:55:42.099Z,10.53
2023-05-13T03:58:44.459Z,10.36
2023-05-13T04:01:46.867Z,10.73
2023-05-13T04:04:50.715Z,10.73
2023-05-13T04:07:54.835Z,10.66
2023-05-13T04:10:59.278Z,10.77
2023-05-13T04:14:01.864Z,10.65
2023-05-13T04:17:04.489Z,10.97
2023-05-13T04:20:07.642Z,10.96
2023-05-13T04:23:10.487Z,10.89
2023-05-13T04:26:12.974Z,11.02
2023-05-13T04:29:17.260Z,11.05
2023-05-13T04:32:23.079Z,11.15
2023-05-13T04:35:28.154Z,11.11
2023-05-13T04:38:34.082Z,11.33
2023-05-13T04:41:37.379Z,11.32
2023-05-13T04:44:39.709Z,11.50
2023-05-13T04:47:42.078Z,11.37
2023-05-13T04:50:47.866Z,11.52
2023-05-13T04:53:51.643Z,11.71
2023-05-13T04:56:56.300Z,11.62
2023-05-13T04:59:59.037Z,11.66
2023-05-13T05:03:01.570Z,11.83
2023-05-13T05:06:04.691Z,11.66
2023-05-13T05:09:07.196Z,11.83
2023-05-13T05:12:10.689Z,11.84
2023-05-13T05:15:16.142Z,12.00
2023-05-13T05:18:21.248Z,12.02
2023-05-13T05:21:26.211Z,12.08
2023-05-13T05:24:29.018Z,12.09
2023-05-13T05:27:31.458Z,12.09
2023-05-13T05:30:39.524Z,12.05
2023-05-13T05:33:47.218Z,12.24
2023-05-13T05:36:49.646Z,12.52
2023-05-13T05:39:52.082Z,12.43
2023-05-13T05:42:54.640Z,12.73
2023-05-13T05:45:57.097Z,12.75
2023-05-13T05:49:02.553Z,12.91
2023-05-13T05:52:07.528Z,13.04
2023-05-13T05:55:10.020Z,13.18
2023-05-13T05:58:16.418Z,13.45
2023-05-13T06:01:19.468Z,13.45
2023-05-13T06:04:21.959Z,13.82
2023-05-13T06:07:25.147Z,14.16
2023-05-13T06:10:27.601Z,14.26
2023-05-13T06:13:30.190Z,14.26
2023-05-13T06:16:32.750Z,14.11
2023-05-13T06:19:35.678Z,14.29
2023-05-13T06:22:40.710Z,14.30
2023-05-13T06:25:43.198Z,14.25
2023-05-13T06:28:45.574Z,14.12
2023-05-13T06:31:48.127Z,13.87
2023-05-13T06:34:54.583Z,13.69
2023-05-13T06:37:58.385Z,13.91
2023-05-13T06:41:00.863Z,13.61
2023-05-13T06:44:09.569Z,13.70
2023-05-13T06:47:16.316Z,14.04
2023-05-13T06:50:19.776Z,14.13
2023-05-13T06:53:22.831Z,14.18
2023-05-13T06:56:25.944Z,14.20
2023-05-13T06:59:28.342Z,14.63
2023-05-13T07:02:30.802Z,14.55
2023-05-13T07:05:34.051Z,14.47
2023-05-13T07:08:36.476Z,14.66
2023-05-13T07:11:39.001Z,14.92
2023-05-13T07:14:41.392Z,14.89
2023-05-13T07:17:43.775Z,15.02
2023-05-13T07:20:46.595Z,15.25
2023-05-13T07:23:49.028Z,15.29
2023-05-13T07:26:51.685Z,15.53
2023-05-13T07:29:54.540Z,15.63
2023-05-13T07:32:56.883Z,15.85
2023-05-13T07:35:59.306Z,15.59
2023-05-13T07:39:02.234Z,15.85
2023-05-13T07:42:05.096Z,15.95
2023-05-13T07:45:08.416Z,16.15
2023-05-13T07:48:11.097Z,16.26
2023-05-13T07:51:13.699Z,16.44
2023-05-13T07:54:16.066Z,16.83
2023-05-13T07:57:18.766Z,16.90
2023-05-13T08:00:21.169Z,16.88
2023-05-13T08:03:23.673Z,17.78
2023-05-13T08:06:26.213Z,17.87
2023-05-13T08:09:28.572Z,18.76
2023-05-13T08:12:31.003Z,19.13
2023-05-13T08:15:33.741Z,19.90
2023-05-13T08:18:36.661Z,19.86
2023-05-13T08:21:39.157Z,19.74
2023-05-13T08:24:43.218Z,19.42
2023-05-13T08:27:45.703Z,19.28
2023-05-13T08:30:48.155Z,19.03
2023-05-13T08:33:51.731Z,18.19
2023-05-13T08:36:54.251Z,18.56
2023-05-13T08:39:57.645Z,18.65
2023-05-13T08:43:04.563Z,18.09
2023-05-13T08:46:10.206Z,18.03
2023-05-13T08:49:13.290Z,17.65
2023-05-13T08:52:15.705Z,18.08
2023-05-13T08:55:19.075Z,17.46
2023-05-13T08:58:21.501Z,17.26
2023-05-13T09:01:26.889Z,17.99
2023-05-13T09:04:29.781Z,18.90
2023-05-13T09:07:32.258Z,18.58
2023-05-13T09:10:34.885Z,18.36
2023-05-13T09:13:37.463Z,19.75
2023-05-13T09:16:39.942Z,20.18
2023-05-13T09:19:42.584Z,19.64
2023-05-13T09:22:51.987Z,18.97
2023-05-13T09:25:54.363Z,18.74
2023-05-13T09:29:31.864Z,18.77
2023-05-13T09:32:34.433Z,17.96
2023-05-13T09:35:41.823Z,17.49
2023-05-13T09:38:44.242Z,16.99
2023-05-13T09:41:47.135Z,17.44
2023-05-13T09:44:49.882Z,17.66
2023-05-13T09:47:53.532Z,19.02
2023-05-13T09:50:58.163Z,19.21
2023-05-13T09:54:07.343Z,18.65
2023-05-13T09:57:12.940Z,18.56
2023-05-13T10:00:25.148Z,19.09
2023-05-13T10:03:34.424Z,18.76
2023-05-13T10:06:37.583Z,18.36
2023-05-13T10:09:40.709Z,18.43
2023-05-13T10:12:43.282Z,18.84
2023-05-13T10:15:53.548Z,19.02
2023-05-13T10:18:57.226Z,19.14
2023-05-13T10:22:00.459Z,19.72
2023-05-13T10:25:05.097Z,19.88
2023-05-13T10:28:09.333Z,19.97
2023-05-13T10:31:11.654Z,19.24
2023-05-13T10:34:14.260Z,19.57
2023-05-13T10:37:28.097Z,18.80
2023-05-13T10:40:58.750Z,18.30
2023-05-13T10:44:01.200Z,18.22
2023-05-13T10:47:03.823Z,18.25
2023-05-13T10:50:23.115Z,19.68
2023-05-13T10:53:30.650Z,19.80
2023-05-13T10:56:32.960Z,20.66
2023-05-13T10:59:37.197Z,21.30
2023-05-13T11:02:39.609Z,21.61
2023-05-13T11:05:47.338Z,20.68
2023-05-13T11:08:53.600Z,19.08
2023-05-13T11:11:59.616Z,18.62
2023-05-13T11:15:02.008Z,18.26
2023-05-13T11:18:05.518Z,17.89
2023-05-13T11:21:08.592Z,17.86
2023-05-13T11:24:18.100Z,17.58
2023-05-13T11:27:21.245Z,17.15
2023-05-13T11:30:27.883Z,17.36
2023-05-13T11:34:09.796Z,17.57
2023-05-13T11:37:12.271Z,17.58
2023-05-13T11:40:28.758Z,17.75
2023-05-13T11:43:34.492Z,17.84
2023-05-13T11:46:37.210Z,18.14
2023-05-13T11:49:40.791Z,17.98
2023-05-13T11:52:43.616Z,17.71
2023-05-13T11:55:45.956Z,17.65
2023-05-13T11:58:48.398Z,17.80
2023-05-13T12:02:01.261Z,17.88
2023-05-13T12:05:08.897Z,18.22
2023-05-13T12:08:11.729Z,17.93
2023-05-13T12:11:14.332Z,17.53
2023-05-13T12:14:17.910Z,17.73
2023-05-13T12:17:21.227Z,17.76
2023-05-13T12:20:24.592Z,17.91
2023-05-13T12:23:37.334Z,18.11
2023-05-13T12:26:39.762Z,17.71
2023-05-13T12:29:42.805Z,17.59
2023-05-13T12:32:47.056Z,17.66
2023-05-13T12:35:52.434Z,17.84
2023-05-13T12:39:06.676Z,17.92
2023-05-13T12:42:16.753Z,18.28
2023-05-13T12:45:19.258Z,18.43
2023-05-13T12:48:24.954Z,18.59
2023-05-13T12:51:27.856Z,18.80
2023-05-13T12:54:30.775Z,19.32
2023-05-13T12:57:33.129Z,20.16
2023-05-13T13:00:35.548Z,19.63
2023-05-13T13:03:38.168Z,19.95
2023-05-13T13:06:40.775Z,21.03
2023-05-13T13:09:43.161Z,20.63
2023-05-13T13:12:45.823Z,20.51
2023-05-13T13:15:48.191Z,20.63
2023-05-13T13:18:53.199Z,20.22
2023-05-13T13:21:57.492Z,20.41
2023-05-13T13:24:59.826Z,20.89
2023-05-13T13:28:02.616Z,20.43
2023-05-13T13:31:05.224Z,19.37
2023-05-13T13:34:09.916Z,19.35
2023-05-13T13:37:12.288Z,19.19
2023-05-13T13:40:14.616Z,18.85
2023-05-13T13:43:16.934Z,19.12
2023-05-13T13:46:19.465Z,19.69
2023-05-13T13:49:24.150Z,19.82
2023-05-13T13:52:28.610Z,19.14
2023-05-13T13:55:30.987Z,20.12
2023-05-13T13:58:33.337Z,20.03
2023-05-13T14:01:35.827Z,19.53
2023-05-13T14:04:38.291Z,18.41
2023-05-13T14:07:40.740Z,19.44
2023-05-13T14:10:43.133Z,18.53
2023-05-13T14:13:45.484Z,19.08
2023-05-13T14:16:48.089Z,19.51
2023-05-13T14:19:51.824Z,19.55
2023-05-13T14:22:54.156Z,19.13
2023-05-13T14:25:56.515Z,19.27
2023-05-13T14:28:58.900Z,18.08
2023-05-13T14:32:03.163Z,17.80
2023-05-13T14:35:06.011Z,18.15
2023-05-13T14:38:09.768Z,18.17
2023-05-13T14:41:12.665Z,17.64
2023-05-13T14:44:15.335Z,17.56
2023-05-13T14:47:17.791Z,17.47
2023-05-13T14:50:20.937Z,17.96
2023-05-13T14:53:23.532Z,17.98
2023-05-13T14:56:25.996Z,18.28
2023-05-13T14:59:29.350Z,18.47
2023-05-13T15:02:31.875Z,18.82
2023-05-13T15:05:34.328Z,18.56
2023-05-13T15:08:37.873Z,18.32
2023-05-13T15:11:42.235Z,17.95
2023-05-13T15:14:52.030Z,17.52
2023-05-13T15:17:54.411Z,16.91
2023-05-13T15:20:56.775Z,16.78
2023-05-13T15:23:59.164Z,16.57
2023-05-13T15:27:03.569Z,16.29
2023-05-13T15:30:06.756Z,16.24
2023-05-13T15:33:09.168Z,16.20
2023-05-13T15:36:11.583Z,16.17
2023-05-13T15:39:13.996Z,16.13
2023-05-13T15:42:16.726Z,15.94
2023-05-13T15:45:19.263Z,15.74
2023-05-13T15:48:21.629Z,15.77
2023-05-13T15:51:24.039Z,15.79
2023-05-13T15:54:26.373Z,15.52
2023-05-13T15:57:28.782Z,15.59
2023-05-13T16:00:31.399Z,15.44
2023-05-13T16:03:34.184Z,15.40
2023-05-13T16:06:37.130Z,15.33
2023-05-13T16:09:39.619Z,15.20
2023-05-13T16:12:42.891Z,15.33
2023-05-13T16:15:45.350Z,15.06
2023-05-13T16:18:48.149Z,15.07
2023-05-13T16:21:50.617Z,15.04
2023-05-13T16:24:53.134Z,14.92
2023-05-13T16:27:56.627Z,14.68
2023-05-13T16:30:58.995Z,14.94
2023-05-13T16:34:01.295Z,14.85
2023-05-13T16:37:03.704Z,14.98
2023-05-13T16:40:06.851Z,14.92
2023-05-13T16:43:09.875Z,14.93
2023-05-13T16:46:12.710Z,14.97
2023-05-13T16:49:15.166Z,14.80
2023-05-13T16:52:17.599Z,14.94
2023-05-13T16:55:20.482Z,14.95
2023-05-13T16:58:22.839Z,14.81
2023-05-13T17:01:25.369Z,14.61
2023-05-13T17:04:28.455Z,14.50
2023-05-13T17:07:30.827Z,14.62
2023-05-13T17:10:33.353Z,14.65
2023-05-13T17:13:35.683Z,14.46
2023-05-13T17:16:38.667Z,14.38
2023-05-13T17:19:41.789Z,14.52
2023-05-13T17:22:47.191Z,14.31
2023-05-13T17:25:49.642Z,14.48
2023-05-13T17:28:52.380Z,14.43
2023-05-13T17:31:54.746Z,14.32
2023-05-13T17:34:57.541Z,14.50
2023-05-13T17:37:59.908Z,14.16
2023-05-13T17:41:02.361Z,14.36
2023-05-13T17:44:04.903Z,14.30
2023-05-13T17:47:07.278Z,13.98
2023-05-13T17:50:10.467Z,14.17
2023-05-13T17:53:12.853Z,14.10
2023-05-13T17:56:15.201Z,14.00
2023-05-13T17:59:17.544Z,13.93
2023-05-13T18:02:19.910Z,13.76
2023-05-13T18:05:22.728Z,13.65
2023-05-13T18:08:25.263Z,13.61
2023-05-13T18:11:27.580Z,13.51
2023-05-13T18:14:32.373Z,13.24
2023-05-13T18:17:34.909Z,13.24
2023-05-13T18:20:39.977Z,13.17
2023-05-13T18:23:44.184Z,12.86
2023-05-13T18:26:46.511Z,12.88
2023-05-13T18:29:48.858Z,12.76
2023-05-13T18:32:51.387Z,12.61
2023-05-13T18:35:53.947Z,12.41
2023-05-13T18:38:56.378Z,12.67
2023-05-13T18:41:58.731Z,12.51
2023-05-13T18:45:01.133Z,12.54
2023-05-13T18:48:03.715Z,12.24
2023-05-13T18:51:06.276Z,12.16
2023-05-13T18:54:08.594Z,11.91
2023-05-13T18:57:11.146Z,11.89
2023-05-13T19:00:13.932Z,11.47
2023-05-13T19:03:16.400Z,11.64
2023-05-13T19:06:19.184Z,11.37
2023-05-13T19:09:22.422Z,11.46
2023-05-13T19:12:24.846Z,11.23
2023-05-13T19:15:27.243Z,11.11
2023-05-13T19:18:29.645Z,11.02
2023-05-13T19:21:32.053Z,10.88
2023-05-13T19:24:34.429Z,10.89
2023-05-13T19:27:37.613Z,10.84
2023-05-13T19:30:41.100Z,10.66
2023-05-13T19:33:45.930Z,10.58
2023-05-13T19:36:48.722Z,10.37
2023-05-13T19:39:51.058Z,10.36
2023-05-13T19:42:54.066Z,10.16
2023-05-13T19:45:57.547Z,10.25
2023-05-13T19:48:59.909Z,10.02
2023-05-13T19:52:02.301Z,10.15
2023-05-13T19:55:05.163Z,9.85
2023-05-13T19:58:07.609Z,10.11
2023-05-13T20:01:11.823Z,10.00
2023-05-13T20:04:14.279Z,10.10
2023-05-13T20:07:17.269Z,10.10
2023-05-13T20:10:19.715Z,10.08
2023-05-13T20:13:22.063Z,10.07
2023-05-13T20:16:24.573Z,10.11
2023-05-13T20:19:26.993Z,9.98
2023-05-13T20:22:29.986Z,9.90
2023-05-13T20:25:32.341Z,10.08
2023-05-13T20:28:37.459Z,9.87
2023-05-13T20:31:42.824Z,10.04
2023-05-13T20:34:45.230Z,9.84
2023-05-13T20:37:47.595Z,9.96
2023-05-13T20:40:49.990Z,9.63
2023-05-13T20:43:52.403Z,9.94
2023-05-13T20:46:54.714Z,9.79
2023-05-13T20:49:57.748Z,9.89
2023-05-13T20:53:00.100Z,9.79
2023-05-13T20:56:03.891Z,9.59
2023-05-13T20:59:07.326Z,9.71
2023-05-13T21:02:09.737Z,9.42
2023-05-13T21:05:12.258Z,9.73
2023-05-13T21:08:14.792Z,9.77
2023-05-13T21:11:17.707Z,9.69
2023-05-13T21:14:20.450Z,9.47
2023-05-13T21:17:24.484Z,9.61
2023-05-13T21:20:27.026Z,9.28
2023-05-13T21:23:29.336Z,9.39
2023-05-13T21:26:33.258Z,9.28
2023-05-13T21:29:35.627Z,9.00
2023-05-13T21:32:37.954Z,8.99
2023-05-13T21:35:40.606Z,8.98
2023-05-13T21:38:43.031Z,8.80
2023-05-13T21:41:45.506Z,8.85
2023-05-13T21:44:47.840Z,8.70
2023-05-13T21:47:50.195Z,8.53
2023-05-13T21:50:52.877Z,8.80
2023-05-13T21:53:55.301Z,8.80
2023-05-13T21:56:57.616Z,8.62
2023-05-13T21:59:59.950Z,8.59
2023-05-13T22:03:02.462Z,8.60
2023-05-13T22:06:05.021Z,8.28
2023-05-13T22:09:07.365Z,8.55
2023-05-13T22:12:09.832Z,8.18
2023-05-13T22:15:12.362Z,8.28
2023-05-13T22:18:15.370Z,8.09
2023-05-13T22:21:17.842Z,8.40
2023-05-13T22:24:20.202Z,7.94
2023-05-13T22:27:22.580Z,8.14
2023-05-13T22:30:25.192Z,8.19
2023-05-13T22:33:27.906Z,8.01
2023-05-13T22:36:31.037Z,8.10
2023-05-13T22:39:33.886Z,8.02
2023-05-13T22:42:36.232Z,8.10
2023-05-13T22:45:38.590Z,7.85
2023-05-13T22:48:40.945Z,7.92
2023-05-13T22:51:43.304Z,7.76
2023-05-13T22:54:45.827Z,7.50
2023-05-13T22:57:48.246Z,7.70
2023-05-13T23:00:50.828Z,7.74
2023-05-13T23:03:53.261Z,7.87
2023-05-13T23:06:55.614Z,7.82
2023-05-13T23:09:58.142Z,8.09
2023-05-13T23:13:00.551Z,8.17
2023-05-13T23:16:02.983Z,8.22
2023-05-13T23:19:05.459Z,8.46
2023-05-13T23:22:07.936Z,8.59
2023-05-13T23:25:10.444Z,8.56
2023-05-13T23:28:13.207Z,8.51
2023-05-13T23:31:16.574Z,8.51
2023-05-13T23:34:18.951Z,8.58
2023-05-13T23:37:22.130Z,8.60
2023-05-13T23:40:24.813Z,8.53
2023-05-13T23:43:27.453Z,8.43
2023-05-13T23:46:29.812Z,8.63
2023-05-13T23:49:32.299Z,8.75
2023-05-13T23:52:34.726Z,8.70
2023-05-13T23:55:37.091Z,8.32
2023-05-13T23:58:39.469Z,8.23
